createdAt,value
2023-04-19T00:01:31.922Z,9.70
2023-04-19T00:03:59.031Z,9.87
2023-04-19T00:06:26.281Z,10.27
2023-04-19T00:08:53.149Z,8.83
2023-04-19T00:11:20.274Z,8.63
2023-04-19T00:13:47.431Z,8.40
2023-04-19T00:16:14.340Z,8.60
2023-04-19T00:18:41.899Z,9.87
2023-04-19T00:21:09.131Z,9.43
2023-04-19T00:23:36.054Z,9.07
2023-04-19T00:26:04.232Z,9.67
2023-04-19T00:28:31.285Z,8.10
2023-04-19T00:30:58.442Z,8.30
2023-04-19T00:33:25.515Z,7.70
2023-04-19T00:35:52.478Z,6.73
2023-04-19T00:38:19.427Z,7.27
2023-04-19T00:40:46.982Z,7.10
2023-04-19T00:43:20.671Z,6.97
2023-04-19T00:45:48.959Z,5.53
2023-04-19T00:48:16.062Z,6.43
2023-04-19T00:50:44.811Z,5.80
2023-04-19T00:53:12.151Z,7.20
2023-04-19T00:55:39.949Z,6.10
2023-04-19T00:58:09.304Z,5.70
2023-04-19T01:00:37.593Z,6.10
2023-04-19T01:03:05.169Z,6.07
2023-04-19T01:05:32.170Z,6.60
2023-04-19T01:07:59.096Z,5.90
2023-04-19T01:10:25.996Z,5.30
2023-04-19T01:12:52.997Z,6.10
2023-04-19T01:15:19.988Z,5.70
2023-04-19T01:17:47.076Z,5.97
2023-04-19T01:20:14.358Z,6.40
2023-04-19T01:22:41.243Z,5.37
2023-04-19T01:25:09.088Z,6.10
2023-04-19T01:27:36.102Z,6.00
2023-04-19T01:30:03.387Z,5.87
2023-04-19T01:32:30.772Z,5.70
2023-04-19T01:34:59.905Z,5.83
2023-04-19T01:37:26.848Z,5.90
2023-04-19T01:39:54.032Z,6.33
2023-04-19T01:42:23.243Z,6.33
2023-04-19T01:44:50.234Z,5.80
2023-04-19T01:47:17.103Z,5.53
2023-04-19T01:49:44.026Z,5.90
2023-04-19T01:52:10.883Z,5.60
2023-04-19T01:54:37.744Z,5.53
2023-04-19T01:57:04.673Z,6.80
2023-04-19T01:59:31.490Z,6.83
2023-04-19T02:01:58.748Z,6.03
2023-04-19T02:04:25.747Z,6.10
2023-04-19T02:06:52.705Z,5.77
2023-04-19T02:09:19.669Z,6.47
2023-04-19T02:11:46.575Z,4.90
2023-04-19T02:14:13.701Z,5.33
2023-04-19T02:16:41.376Z,5.07
2023-04-19T02:19:09.316Z,4.90
2023-04-19T02:21:36.188Z,5.20
2023-04-19T02:24:03.148Z,5.17
2023-04-19T02:26:30.035Z,5.37
2023-04-19T02:28:56.995Z,6.57
2023-04-19T02:31:24.085Z,5.20
2023-04-19T02:33:51.012Z,5.47
2023-04-19T02:36:17.869Z,6.10
2023-04-19T02:38:44.761Z,6.33
2023-04-19T02:41:11.675Z,6.10
2023-04-19T02:43:38.650Z,5.87
2023-04-19T02:46:06.042Z,5.30
2023-04-19T02:48:33.019Z,5.70
2023-04-19T02:51:00.214Z,5.60
2023-04-19T02:53:27.157Z,5.30
2023-04-19T02:55:54.059Z,6.30
2023-04-19T02:58:21.063Z,6.10
2023-04-19T03:00:47.920Z,5.97
2023-04-19T03:03:14.896Z,5.93
2023-04-19T03:05:41.900Z,5.67
2023-04-19T03:08:10.899Z,5.60
2023-04-19T03:10:37.796Z,6.80
2023-04-19T03:13:04.801Z,6.33
2023-04-19T03:15:31.684Z,6.40
2023-04-19T03:17:58.677Z,5.77
2023-04-19T03:20:26.305Z,6.43
2023-04-19T03:22:53.266Z,7.00
2023-04-19T03:25:20.613Z,7.23
2023-04-19T03:27:48.199Z,6.53
2023-04-19T03:30:15.513Z,6.47
2023-04-19T03:32:42.773Z,6.50
2023-04-19T03:35:10.152Z,7.17
2023-04-19T03:37:37.017Z,7.53
2023-04-19T03:40:04.338Z,8.10
2023-04-19T03:42:31.199Z,6.67
2023-04-19T03:44:58.239Z,5.93
2023-04-19T03:47:25.203Z,7.07
2023-04-19T03:49:52.121Z,7.60
2023-04-19T03:52:19.098Z,6.07
2023-04-19T03:54:47.305Z,6.37
2023-04-19T03:57:15.542Z,6.47
2023-04-19T03:59:42.398Z,6.43
2023-04-19T04:02:09.461Z,6.80
2023-04-19T04:04:36.796Z,6.47
2023-04-19T04:07:03.942Z,6.90
2023-04-19T04:09:31.392Z,6.80
2023-04-19T04:11:58.327Z,7.50
2023-04-19T04:14:25.316Z,6.70
2023-04-19T04:16:52.299Z,6.73
2023-04-19T04:19:21.916Z,7.20
2023-04-19T04:21:49.391Z,8.10
2023-04-19T04:24:17.997Z,6.90
2023-04-19T04:26:45.039Z,7.87
2023-04-19T04:29:11.985Z,7.07
2023-04-19T04:31:41.362Z,6.93
2023-04-19T04:34:10.088Z,7.47
2023-04-19T04:36:37.727Z,6.87
2023-04-19T04:39:06.443Z,7.70
2023-04-19T04:41:33.594Z,7.03
2023-04-19T04:46:31.177Z,6.53
2023-04-19T04:48:58.039Z,6.50
2023-04-19T04:51:25.142Z,6.50
2023-04-19T04:53:52.098Z,6.17
2023-04-19T04:56:19.875Z,6.80
2023-04-19T04:58:46.808Z,6.37
2023-04-19T05:01:13.757Z,5.80
2023-04-19T05:03:40.815Z,5.53
2023-04-19T05:06:07.969Z,5.70
2023-04-19T05:08:34.838Z,5.20
2023-04-19T05:11:01.717Z,6.50
2023-04-19T05:13:28.758Z,5.20
2023-04-19T05:15:55.729Z,5.17
2023-04-19T05:18:22.785Z,4.83
2023-04-19T05:20:49.721Z,5.13
2023-04-19T05:23:17.012Z,4.80
2023-04-19T05:25:43.944Z,4.50
2023-04-19T05:28:10.949Z,5.10
2023-04-19T05:30:38.398Z,3.93
2023-04-19T05:33:05.624Z,5.10
2023-04-19T05:35:32.570Z,4.27
2023-04-19T05:37:59.431Z,5.37
2023-04-19T05:40:26.436Z,4.03
2023-04-19T05:42:53.461Z,3.80
2023-04-19T05:45:22.338Z,4.50
2023-04-19T05:47:49.237Z,4.50
2023-04-19T05:50:18.103Z,4.70
2023-04-19T05:52:45.030Z,4.03
2023-04-19T05:55:11.915Z,4.00
2023-04-19T05:57:38.909Z,4.33
2023-04-19T06:00:09.013Z,4.20
2023-04-19T06:02:37.024Z,3.70
2023-04-19T06:05:09.761Z,5.30
2023-04-19T06:07:40.722Z,3.83
2023-04-19T06:10:10.987Z,4.30
2023-04-19T06:12:37.923Z,4.27
2023-04-19T06:15:05.868Z,3.50
2023-04-19T06:17:32.845Z,3.90
2023-04-19T06:19:59.802Z,3.47
2023-04-19T06:22:26.826Z,3.90
2023-04-19T06:24:53.750Z,2.87
2023-04-19T06:27:20.774Z,3.40
2023-04-19T06:29:48.779Z,3.40
2023-04-19T06:32:20.177Z,3.40
2023-04-19T06:34:47.548Z,3.03
2023-04-19T06:37:15.266Z,3.40
2023-04-19T06:39:42.156Z,3.60
2023-04-19T06:42:09.149Z,3.97
2023-04-19T06:44:36.061Z,2.97
2023-04-19T06:47:03.487Z,2.90
2023-04-19T06:49:30.390Z,3.40
2023-04-19T06:51:58.531Z,3.50
2023-04-19T06:54:25.414Z,3.53
2023-04-19T06:56:52.396Z,3.17
2023-04-19T06:59:21.076Z,4.00
2023-04-19T07:01:48.319Z,3.27
2023-04-19T07:04:16.490Z,3.30
2023-04-19T07:06:43.662Z,2.70
2023-04-19T07:09:10.848Z,2.87
2023-04-19T07:11:37.897Z,2.43
2023-04-19T07:14:04.811Z,3.33
2023-04-19T07:16:31.849Z,2.63
2023-04-19T07:18:59.112Z,2.93
2023-04-19T07:21:28.788Z,2.70
2023-04-19T07:23:55.657Z,3.03
2023-04-19T07:26:22.604Z,2.60
2023-04-19T07:28:50.424Z,2.53
2023-04-19T07:31:26.883Z,2.50
2023-04-19T07:33:54.127Z,2.10
2023-04-19T07:36:21.690Z,2.93
2023-04-19T07:38:48.715Z,2.60
2023-04-19T07:41:15.733Z,1.83
2023-04-19T07:43:42.646Z,2.10
2023-04-19T07:46:11.371Z,2.17
2023-04-19T07:48:38.599Z,1.93
2023-04-19T07:51:12.837Z,2.03
2023-04-19T07:53:41.639Z,1.83
2023-04-19T07:56:12.136Z,2.27
2023-04-19T07:58:39.797Z,2.20
2023-04-19T08:01:07.232Z,2.00
2023-04-19T08:03:35.042Z,2.20
2023-04-19T08:06:03.179Z,2.60
2023-04-19T08:08:30.134Z,1.97
2023-04-19T08:10:57.206Z,2.20
2023-04-19T08:13:25.103Z,2.70
2023-04-19T08:16:27.199Z,2.40
2023-04-19T08:18:39.045Z,2.03
2023-04-19T08:21:05.963Z,1.97
2023-04-19T08:23:44.971Z,2.30
2023-04-19T08:26:14.526Z,2.13
2023-04-19T08:28:41.612Z,2.07
2023-04-19T08:31:13.283Z,2.13
2023-04-19T08:33:43.054Z,2.30
2023-04-19T08:36:11.051Z,2.83
2023-04-19T08:38:39.098Z,2.50
2023-04-19T08:41:06.069Z,2.77
2023-04-19T08:43:38.388Z,2.67
2023-04-19T08:46:07.944Z,2.10
2023-04-19T08:48:36.875Z,2.90
2023-04-19T08:51:05.781Z,2.00
2023-04-19T08:53:36.930Z,2.33
2023-04-19T08:56:17.586Z,2.37
2023-04-19T08:59:04.042Z,2.00
2023-04-19T09:01:38.121Z,2.03
2023-04-19T09:04:17.424Z,2.50
2023-04-19T09:06:53.919Z,1.90
2023-04-19T09:09:37.225Z,1.40
2023-04-19T09:12:20.062Z,2.27
2023-04-19T09:15:00.701Z,2.00
2023-04-19T09:17:31.266Z,2.60
2023-04-19T09:19:59.041Z,2.20
2023-04-19T09:22:26.414Z,2.40
2023-04-19T09:27:36.604Z,2.33
2023-04-19T09:30:05.383Z,2.00
2023-04-19T09:32:48.240Z,2.10
2023-04-19T09:35:18.927Z,2.20
2023-04-19T09:38:07.118Z,2.00
2023-04-19T09:40:34.712Z,2.07
2023-04-19T09:43:22.935Z,2.20
2023-04-19T09:45:50.275Z,2.40
2023-04-19T09:48:17.223Z,2.30
2023-04-19T09:51:03.276Z,1.90
2023-04-19T09:53:35.329Z,2.37
2023-04-19T09:56:03.808Z,1.80
2023-04-19T09:58:42.580Z,2.90
2023-04-19T10:01:19.306Z,1.80
2023-04-19T10:03:49.263Z,2.20
2023-04-19T10:08:53.546Z,2.57
2023-04-19T10:11:26.861Z,2.73
2023-04-19T10:13:59.197Z,2.53
2023-04-19T10:16:27.332Z,2.13
2023-04-19T10:18:55.373Z,2.50
2023-04-19T10:21:22.536Z,2.57
2023-04-19T10:23:50.173Z,2.53
2023-04-19T10:26:17.190Z,2.63
2023-04-19T10:28:44.149Z,2.40
2023-04-19T10:31:14.830Z,2.80
2023-04-19T10:33:42.633Z,2.77
2023-04-19T10:36:11.358Z,3.13
2023-04-19T10:38:55.564Z,3.00
2023-04-19T10:41:23.063Z,2.80
2023-04-19T10:44:16.494Z,2.67
2023-04-19T10:46:43.390Z,3.10
2023-04-19T10:49:12.866Z,2.73
2023-04-19T10:51:43.444Z,3.10
2023-04-19T10:54:31.954Z,3.57
2023-04-19T10:57:11.893Z,2.87
2023-04-19T10:59:40.721Z,3.20
2023-04-19T11:02:32.732Z,2.73
2023-04-19T11:05:01.087Z,3.17
2023-04-19T11:07:28.425Z,3.10
2023-04-19T11:09:55.355Z,3.03
2023-04-19T11:12:22.477Z,3.33
2023-04-19T11:14:54.768Z,3.23
2023-04-19T11:17:32.026Z,3.43
2023-04-19T11:20:08.692Z,3.37
2023-04-19T11:22:43.398Z,3.50
2023-04-19T11:25:19.410Z,3.63
2023-04-19T11:27:53.757Z,3.33
2023-04-19T11:30:23.251Z,2.80
2023-04-19T11:32:55.587Z,3.30
2023-04-19T11:35:30.804Z,3.20
2023-04-19T11:37:59.580Z,3.27
2023-04-19T11:40:27.021Z,3.40
2023-04-19T11:43:01.996Z,2.70
2023-04-19T11:45:40.050Z,3.37
2023-04-19T11:48:15.685Z,3.10
2023-04-19T11:50:44.552Z,3.10
2023-04-19T11:53:24.403Z,3.70
2023-04-19T11:56:07.500Z,2.80
2023-04-19T11:58:40.085Z,2.93
2023-04-19T12:01:28.398Z,3.67
2023-04-19T12:03:58.891Z,3.50
2023-04-19T12:06:27.020Z,3.47
2023-04-19T12:08:55.462Z,2.70
2023-04-19T12:11:42.325Z,2.40
2023-04-19T12:14:15.054Z,3.70
2023-04-19T12:16:42.316Z,2.60
2023-04-19T12:19:20.765Z,3.00
2023-04-19T12:21:48.090Z,3.00
2023-04-19T12:24:16.856Z,3.03
2023-04-19T12:26:56.339Z,3.20
2023-04-19T12:29:24.549Z,2.53
2023-04-19T12:31:51.811Z,3.17
2023-04-19T12:34:19.446Z,3.00
2023-04-19T12:36:46.618Z,2.73
2023-04-19T12:39:13.672Z,3.13
2023-04-19T12:41:40.907Z,3.30
2023-04-19T12:44:07.827Z,3.10
2023-04-19T12:46:34.925Z,2.53
2023-04-19T12:49:02.006Z,2.80
2023-04-19T12:51:28.906Z,2.90
2023-04-19T12:53:55.847Z,3.43
2023-04-19T12:56:22.839Z,2.70
2023-04-19T12:58:50.506Z,3.23
2023-04-19T13:01:17.544Z,2.33
2023-04-19T13:03:44.670Z,3.20
2023-04-19T13:06:14.931Z,2.80
2023-04-19T13:08:46.652Z,2.50
2023-04-19T13:11:15.928Z,2.80
2023-04-19T13:13:42.879Z,2.57
2023-04-19T13:16:09.929Z,2.53
2023-04-19T13:18:36.861Z,3.00
2023-04-19T13:21:06.031Z,3.00
2023-04-19T13:23:34.373Z,3.40
2023-04-19T13:26:01.279Z,2.87
2023-04-19T13:28:28.221Z,2.90
2023-04-19T13:30:56.378Z,3.60
2023-04-19T13:33:23.686Z,2.57
2023-04-19T13:35:50.546Z,2.47
2023-04-19T13:38:17.510Z,2.30
2023-04-19T13:40:45.644Z,2.60
2023-04-19T13:43:12.573Z,2.60
2023-04-19T13:45:39.486Z,2.43
2023-04-19T13:48:06.783Z,2.87
2023-04-19T13:50:33.734Z,2.27
2023-04-19T13:53:00.800Z,3.07
2023-04-19T13:55:27.765Z,2.77
2023-04-19T13:57:54.744Z,2.37
2023-04-19T14:00:21.906Z,2.10
2023-04-19T14:02:50.909Z,2.53
2023-04-19T14:05:19.309Z,2.40
2023-04-19T14:07:46.554Z,2.40
2023-04-19T14:10:13.520Z,2.50
2023-04-19T14:12:40.933Z,2.63
2023-04-19T14:15:10.989Z,2.87
2023-04-19T14:17:38.255Z,2.70
2023-04-19T14:20:07.487Z,2.13
2023-04-19T14:22:35.583Z,2.23
2023-04-19T14:25:04.273Z,2.10
2023-04-19T14:27:31.563Z,2.17
2023-04-19T14:29:58.754Z,2.27
2023-04-19T14:32:27.527Z,2.60
2023-04-19T14:34:56.237Z,2.77
2023-04-19T14:37:24.690Z,2.10
2023-04-19T14:39:52.098Z,3.50
2023-04-19T14:42:22.295Z,2.10
2023-04-19T14:44:52.095Z,1.90
2023-04-19T14:47:20.016Z,2.10
2023-04-19T14:49:47.130Z,1.87
2023-04-19T14:52:14.271Z,1.63
2023-04-19T14:54:41.910Z,1.90
2023-04-19T14:57:09.575Z,1.60
2023-04-19T14:59:36.732Z,2.17
2023-04-19T15:02:03.873Z,1.73
2023-04-19T15:04:33.909Z,1.83
2023-04-19T15:07:01.113Z,1.63
2023-04-19T15:09:27.987Z,1.13
2023-04-19T15:11:54.881Z,1.57
2023-04-19T15:14:21.753Z,2.00
2023-04-19T15:16:49.114Z,2.10
2023-04-19T15:19:16.429Z,2.27
2023-04-19T15:21:43.741Z,1.77
2023-04-19T15:24:11.269Z,1.80
2023-04-19T15:26:39.195Z,1.77
2023-04-19T15:29:06.586Z,1.90
2023-04-19T15:31:33.792Z,1.93
2023-04-19T15:34:04.460Z,2.00
2023-04-19T15:36:32.027Z,2.07
2023-04-19T15:38:59.534Z,1.90
2023-04-19T15:41:26.859Z,1.83
2023-04-19T15:43:53.799Z,2.30
2023-04-19T15:46:20.788Z,2.30
2023-04-19T15:48:48.685Z,2.47
2023-04-19T15:51:16.239Z,2.30
2023-04-19T15:53:43.299Z,1.90
2023-04-19T15:56:10.680Z,2.17
2023-04-19T15:58:37.882Z,2.23
2023-04-19T16:01:08.695Z,2.60
2023-04-19T16:03:35.872Z,2.20
2023-04-19T16:06:02.938Z,2.20
2023-04-19T16:08:29.835Z,2.20
2023-04-19T16:10:56.811Z,1.83
2023-04-19T16:13:23.952Z,2.03
2023-04-19T16:15:50.897Z,2.27
2023-04-19T16:18:17.761Z,2.50
2023-04-19T16:20:44.787Z,2.50
2023-04-19T16:23:12.122Z,2.57
2023-04-19T16:25:41.403Z,2.27
2023-04-19T16:28:08.656Z,2.63
2023-04-19T16:30:36.422Z,2.67
2023-04-19T16:33:03.991Z,2.80
2023-04-19T16:35:31.114Z,2.63
2023-04-19T16:37:58.270Z,2.47
2023-04-19T16:40:25.209Z,2.77
2023-04-19T16:42:52.159Z,2.60
2023-04-19T16:45:19.319Z,2.50
2023-04-19T16:47:46.623Z,2.33
2023-04-19T16:50:14.340Z,2.80
2023-04-19T16:52:41.778Z,2.60
2023-04-19T16:55:09.380Z,2.40
2023-04-19T16:57:36.921Z,2.70
2023-04-19T17:00:06.076Z,2.90
2023-04-19T17:02:33.921Z,3.33
2023-04-19T17:05:01.408Z,3.17
2023-04-19T17:07:28.535Z,3.30
2023-04-19T17:09:56.018Z,2.63
2023-04-19T17:12:23.036Z,3.47
2023-04-19T17:14:50.034Z,3.00
2023-04-19T17:17:20.041Z,3.50
2023-04-19T17:19:47.217Z,3.83
2023-04-19T17:22:15.340Z,3.40
2023-04-19T17:24:42.973Z,3.10
2023-04-19T17:27:10.086Z,4.17
2023-04-19T17:29:37.079Z,3.00
2023-04-19T17:32:04.375Z,3.10
2023-04-19T17:34:36.671Z,3.50
2023-04-19T17:37:04.251Z,3.30
2023-04-19T17:39:33.012Z,4.10
2023-04-19T17:42:00.144Z,4.13
2023-04-19T17:44:27.318Z,3.60
2023-04-19T17:46:54.334Z,3.13
2023-04-19T17:49:21.843Z,3.73
2023-04-19T17:51:48.907Z,3.23
2023-04-19T17:54:16.395Z,3.23
2023-04-19T17:56:43.368Z,3.73
2023-04-19T17:59:10.404Z,3.20
2023-04-19T18:01:38.311Z,3.60
2023-04-19T18:04:05.752Z,3.20
2023-04-19T18:06:33.054Z,3.97
2023-04-19T18:09:00.593Z,4.50
2023-04-19T18:11:28.657Z,4.00
2023-04-19T18:13:58.127Z,4.07
2023-04-19T18:16:25.337Z,3.13
2023-04-19T18:18:52.390Z,3.40
2023-04-19T18:21:19.469Z,3.13
2023-04-19T18:23:46.490Z,3.23
2023-04-19T18:26:13.565Z,3.53
2023-04-19T18:28:42.658Z,3.87
2023-04-19T18:31:10.126Z,4.10
2023-04-19T18:33:37.670Z,3.70
2023-04-19T18:36:05.718Z,3.60
2023-04-19T18:38:34.216Z,4.03
2023-04-19T18:41:01.301Z,3.90
2023-04-19T18:43:30.967Z,3.13
2023-04-19T18:45:59.587Z,3.90
2023-04-19T18:48:28.429Z,3.93
2023-04-19T18:50:59.454Z,4.43
2023-04-19T18:53:31.715Z,5.20
2023-04-19T18:55:58.859Z,4.33
2023-04-19T18:58:32.409Z,4.70
2023-04-19T19:00:59.597Z,4.53
2023-04-19T19:03:56.788Z,5.00
2023-04-19T19:06:16.972Z,5.27
2023-04-19T19:08:46.421Z,4.60
2023-04-19T19:11:37.424Z,4.97
2023-04-19T19:14:00.633Z,5.80
2023-04-19T19:16:27.692Z,4.50
2023-04-19T19:18:55.920Z,4.47
2023-04-19T19:21:23.056Z,4.00
2023-04-19T19:23:52.411Z,4.10
2023-04-19T19:26:19.633Z,4.40
2023-04-19T19:28:47.367Z,3.93
2023-04-19T19:31:14.661Z,4.70
2023-04-19T19:33:50.176Z,3.93
2023-04-19T19:36:20.537Z,4.43
2023-04-19T19:38:47.475Z,4.10
2023-04-19T19:43:47.985Z,4.00
2023-04-19T19:46:15.322Z,3.70
2023-04-19T19:48:42.757Z,4.00
2023-04-19T19:53:41.348Z,4.10
2023-04-19T19:56:18.373Z,3.40
2023-04-19T19:58:51.682Z,3.77
2023-04-19T20:01:22.711Z,3.27
2023-04-19T20:03:52.043Z,4.67
2023-04-19T20:08:51.396Z,4.27
2023-04-19T20:11:18.430Z,3.90
2023-04-19T20:13:45.831Z,3.90
2023-04-19T20:16:15.073Z,4.33
2023-04-19T20:18:42.778Z,3.97
2023-04-19T20:21:09.793Z,3.70
2023-04-19T20:23:39.841Z,4.07
2023-04-19T20:26:06.953Z,3.30
2023-04-19T20:28:35.309Z,3.23
2023-04-19T20:31:02.610Z,3.43
2023-04-19T20:33:29.598Z,2.93
2023-04-19T20:35:59.755Z,4.20
2023-04-19T20:38:27.245Z,3.67
2023-04-19T20:40:58.360Z,3.83
2023-04-19T20:43:25.485Z,3.90
2023-04-19T20:45:53.646Z,3.83
2023-04-19T20:48:20.652Z,3.57
2023-04-19T20:50:47.673Z,3.40
2023-04-19T20:53:14.693Z,3.50
2023-04-19T20:55:43.771Z,3.47
2023-04-19T20:58:12.064Z,4.10
2023-04-19T21:00:40.213Z,4.23
2023-04-19T21:03:07.984Z,4.00
2023-04-19T21:05:35.629Z,3.60
2023-04-19T21:08:03.625Z,4.13
2023-04-19T21:10:30.560Z,3.43
2023-04-19T21:12:57.565Z,3.07
2023-04-19T21:15:24.595Z,3.70
2023-04-19T21:17:51.687Z,3.50
2023-04-19T21:20:18.730Z,3.90
2023-04-19T21:22:47.320Z,4.00
2023-04-19T21:25:14.433Z,3.80
2023-04-19T21:27:42.333Z,3.67
2023-04-19T21:30:12.323Z,3.10
2023-04-19T21:32:39.594Z,3.40
2023-04-19T21:35:07.835Z,3.30
2023-04-19T21:37:36.612Z,3.20
2023-04-19T21:40:03.768Z,3.27
2023-04-19T21:42:31.172Z,3.70
2023-04-19T21:44:58.200Z,3.93
2023-04-19T21:47:25.125Z,3.57
2023-04-19T21:49:53.434Z,2.97
2023-04-19T21:52:20.378Z,2.97
2023-04-19T21:54:48.761Z,2.83
2023-04-19T21:57:17.623Z,3.40
2023-04-19T21:59:44.536Z,3.50
2023-04-19T22:02:11.595Z,3.20
2023-04-19T22:04:41.634Z,3.30
2023-04-19T22:07:11.552Z,2.93
2023-04-19T22:09:39.269Z,3.60
2023-04-19T22:12:06.677Z,3.50
2023-04-19T22:14:33.789Z,4.27
2023-04-19T22:17:02.659Z,3.60
2023-04-19T22:19:29.936Z,3.77
2023-04-19T22:21:56.965Z,3.97
2023-04-19T22:24:24.124Z,3.70
2023-04-19T22:26:51.256Z,3.77
2023-04-19T22:29:18.653Z,4.27
2023-04-19T22:31:46.173Z,3.77
2023-04-19T22:34:15.737Z,4.10
2023-04-19T22:36:42.681Z,3.90
2023-04-19T22:39:09.545Z,4.00
2023-04-19T22:41:36.513Z,3.87
2023-04-19T22:44:03.479Z,3.73
2023-04-19T22:46:30.734Z,3.67
2023-04-19T22:48:58.056Z,3.77
2023-04-19T22:51:25.300Z,3.77
2023-04-19T22:53:52.212Z,3.30
2023-04-19T22:56:19.221Z,3.23
2023-04-19T22:58:46.164Z,3.70
2023-04-19T23:01:13.252Z,4.30
2023-04-19T23:03:40.435Z,3.73
2023-04-19T23:06:10.729Z,4.63
2023-04-19T23:08:37.648Z,3.20
2023-04-19T23:11:04.751Z,3.37
2023-04-19T23:13:31.818Z,3.90
2023-04-19T23:16:01.265Z,3.90
2023-04-19T23:18:30.081Z,3.70
2023-04-19T23:20:57.516Z,3.67
2023-04-19T23:23:24.393Z,4.63
2023-04-19T23:25:51.612Z,4.17
2023-04-19T23:28:18.602Z,4.13
2023-04-19T23:30:56.592Z,4.70
2023-04-19T23:33:28.446Z,4.00
2023-04-19T23:35:55.450Z,4.50
2023-04-19T23:38:23.585Z,4.10
2023-04-19T23:40:50.830Z,4.87
2023-04-19T23:43:17.862Z,4.30
2023-04-19T23:45:44.877Z,4.63
2023-04-19T23:48:11.878Z,5.10
2023-04-19T23:50:39.308Z,3.67
2023-04-19T23:53:06.212Z,4.03
2023-04-19T23:55:33.313Z,3.97
2023-04-19T23:58:03.500Z,3.90
